Time,TemperatureF,DewpointF,PressureIn,WindDirection,WindDirectionDegrees,WindSpeedMPH,WindSpeedGustMPH,Humidity,HourlyPrecipIn,Conditions,Clouds,dailyrainin,SoftwareType,DateUTC
2013-01-27 00:17:00,17.8,17.3,30.34,WSW,247,6.7,-999.0,98,-99.99,,,0.00,Acu-Link.com,2013-01-27 05:17:00,
2013-01-27 00:33:00,18.0,17.5,30.34,WSW,247,5.1,-999.0,98,-99.99,,,0.00,Acu-Link.com,2013-01-27 05:33:00,
2013-01-27 00:48:00,18.1,17.7,30.35,WSW,247,4.7,-999.0,98,-99.99,,,0.00,Acu-Link.com,2013-01-27 05:48:00,
2013-01-27 01:03:00,18.1,17.7,30.35,West,270,6.7,-999.0,98,-99.99,,,0.00,Acu-Link.com,2013-01-27 06:03:00,
2013-01-27 01:18:00,18.1,17.7,30.35,West,270,5.1,-999.0,98,-99.99,,,0.00,Acu-Link.com,2013-01-27 06:18:00,
2013-01-27 01:34:00,18.1,17.7,30.36,West,270,5.8,-999.0,98,-99.99,,,0.00,Acu-Link.com,2013-01-27 06:34:00,
2013-01-27 01:49:00,18.1,17.7,30.36,SW,225,4.7,-999.0,98,-99.99,,,0.00,Acu-Link.com,2013-01-27 06:49:00,
2013-01-27 02:04:00,18.1,17.7,30.37,West,270,5.8,-999.0,98,-99.99,,,0.00,Acu-Link.com,2013-01-27 07:04:00,
2013-01-27 02:19:00,18.0,17.5,30.37,WSW,247,4.7,-999.0,98,-99.99,,,0.00,Acu-Link.com,2013-01-27 07:19:00,
2013-01-27 02:34:00,17.4,17.0,30.38,WSW,247,3.8,-999.0,98,-99.99,,,0.00,Acu-Link.com,2013-01-27 07:34:00,
2013-01-27 02:50:00,16.9,16.4,30.38,SW,225,3.1,-999.0,98,-99.99,,,0.00,Acu-Link.com,2013-01-27 07:50:00,
2013-01-27 03:05:00,17.4,17.0,30.38,WSW,247,4.7,-999.0,98,-99.99,,,0.00,Acu-Link.com,2013-01-27 08:05:00,
2013-01-27 03:20:00,18.0,17.5,30.39,West,270,3.1,-999.0,98,-99.99,,,0.00,Acu-Link.com,2013-01-27 08:20:00,
2013-01-27 03:35:00,18.1,17.7,30.38,SW,225,5.8,-999.0,98,-99.99,,,0.00,Acu-Link.com,2013-01-27 08:35:00,
2013-01-27 03:50:00,18.3,17.9,30.39,West,270,3.8,-999.0,98,-99.99,,,0.00,Acu-Link.com,2013-01-27 08:50:00,
2013-01-27 04:16:00,18.5,18.0,30.40,West,270,3.1,-999.0,98,-99.99,,,0.00,Acu-Link.com,2013-01-27 09:16:00,
2013-01-27 04:32:00,18.7,18.2,30.39,West,270,4.3,-999.0,98,-99.99,,,0.00,Acu-Link.com,2013-01-27 09:32:00,
2013-01-27 04:47:00,18.7,18.2,30.39,NW,315,2.2,-999.0,98,-99.99,,,0.00,Acu-Link.com,2013-01-27 09:47:00,
2013-01-27 05:02:00,18.7,18.2,30.40,NNW,337,2.7,-999.0,98,-99.99,,,0.00,Acu-Link.com,2013-01-27 10:02:00,
2013-01-27 05:17:00,18.1,17.7,30.40,NNW,337,1.6,-999.0,98,-99.99,,,0.00,Acu-Link.com,2013-01-27 10:17:00,
2013-01-27 05:32:00,18.1,17.7,30.41,NNW,337,0.0,-999.0,98,-99.99,,,0.00,Acu-Link.com,2013-01-27 10:32:00,
2013-01-27 05:48:00,18.1,17.7,30.41,North,0,2.7,-999.0,98,-99.99,,,0.00,Acu-Link.com,2013-01-27 10:48:00,
2013-01-27 06:03:00,18.1,17.7,30.41,NNW,337,1.6,-999.0,98,-99.99,,,0.00,Acu-Link.com,2013-01-27 11:03:00,
2013-01-27 06:18:00,18.1,17.7,30.42,NNW,337,0.0,-999.0,98,-99.99,,,0.00,Acu-Link.com,2013-01-27 11:18:00,
2013-01-27 06:33:00,18.1,17.7,30.42,WNW,292,1.6,-999.0,98,-99.99,,,0.00,Acu-Link.com,2013-01-27 11:33:00,
2013-01-27 06:48:00,18.1,17.7,30.43,NW,315,2.7,-999.0,98,-99.99,,,0.00,Acu-Link.com,2013-01-27 11:48:00,
2013-01-27 07:04:00,18.0,17.5,30.44,WNW,292,0.0,-999.0,98,-99.99,,,0.00,Acu-Link.com,2013-01-27 12:04:00,
2013-01-27 07:19:00,18.0,17.5,30.45,WNW,292,0.0,-999.0,98,-99.99,,,0.00,Acu-Link.com,2013-01-27 12:19:00,
2013-01-27 07:34:00,17.6,17.1,30.45,WSW,247,0.0,-999.0,98,-99.99,,,0.00,Acu-Link.com,2013-01-27 12:34:00,
2013-01-27 07:49:00,17.6,17.1,30.45,WSW,247,0.0,-999.0,98,-99.99,,,0.00,Acu-Link.com,2013-01-27 12:49:00,
2013-01-27 08:04:00,16.9,16.4,30.45,West,270,0.0,-999.0,98,-99.99,,,0.00,Acu-Link.com,2013-01-27 13:04:00,
2013-01-27 08:20:00,16.3,15.9,30.46,West,270,0.0,-999.0,98,-99.99,,,0.00,Acu-Link.com,2013-01-27 13:20:00,
2013-01-27 08:35:00,17.1,16.6,30.46,West,270,0.0,-999.0,98,-99.99,,,0.00,Acu-Link.com,2013-01-27 13:35:00,
2013-01-27 08:50:00,17.8,17.3,30.47,West,270,0.0,-999.0,98,-99.99,,,0.00,Acu-Link.com,2013-01-27 13:50:00,
2013-01-27 09:05:00,18.9,18.4,30.48,NW,315,2.2,-999.0,98,-99.99,,,0.00,Acu-Link.com,2013-01-27 14:05:00,
2013-01-27 09:20:00,20.1,19.6,30.47,NW,315,0.0,-999.0,98,-99.99,,,0.00,Acu-Link.com,2013-01-27 14:20:00,
2013-01-27 09:35:00,21.4,20.9,30.48,SW,225,0.0,-999.0,98,-99.99,,,0.00,Acu-Link.com,2013-01-27 14:35:00,
2013-01-27 09:51:00,22.6,22.2,30.48,WSW,247,0.0,-999.0,98,-99.99,,,0.00,Acu-Link.com,2013-01-27 14:51:00,
2013-01-27 10:06:00,23.5,21.0,30.47,WSW,247,0.0,-999.0,90,-99.99,,,0.00,Acu-Link.com,2013-01-27 15:06:00,
2013-01-27 10:21:00,22.5,21.2,30.49,West,270,0.0,-999.0,95,-99.99,,,0.00,Acu-Link.com,2013-01-27 15:21:00,
2013-01-27 10:36:00,23.7,20.7,30.49,West,270,0.0,-999.0,88,-99.99,,,0.00,Acu-Link.com,2013-01-27 15:36:00,
2013-01-27 10:52:00,23.5,19.7,30.50,West,270,0.0,-999.0,85,-99.99,,,0.00,Acu-Link.com,2013-01-27 15:52:00,
2013-01-27 11:07:00,23.5,19.7,30.50,WSW,247,3.8,-999.0,85,-99.99,,,0.00,Acu-Link.com,2013-01-27 16:07:00,
2013-01-27 11:22:00,23.2,18.8,30.49,WSW,247,0.0,-999.0,83,-99.99,,,0.00,Acu-Link.com,2013-01-27 16:22:00,
2013-01-27 11:37:00,22.5,17.8,30.48,SW,225,3.1,-999.0,82,-99.99,,,0.00,Acu-Link.com,2013-01-27 16:37:00,
2013-01-27 11:52:00,23.2,18.2,30.47,West,270,3.1,-999.0,81,-99.99,,,0.00,Acu-Link.com,2013-01-27 16:52:00,
2013-01-27 12:08:00,24.1,18.5,30.46,WSW,247,0.0,-999.0,79,-99.99,,,0.00,Acu-Link.com,2013-01-27 17:08:00,
2013-01-27 12:23:00,25.7,18.6,30.45,South,180,0.0,-999.0,74,-99.99,,,0.00,Acu-Link.com,2013-01-27 17:23:00,
2013-01-27 12:38:00,27.0,20.4,30.44,SSE,157,0.0,-999.0,76,-99.99,,,0.00,Acu-Link.com,2013-01-27 17:38:00,
2013-01-27 12:53:00,25.0,18.5,30.44,SSE,157,2.7,-999.0,76,-99.99,,,0.00,Acu-Link.com,2013-01-27 17:53:00,
2013-01-27 13:08:00,24.3,17.8,30.44,ESE,112,0.0,-999.0,76,-99.99,,,0.00,Acu-Link.com,2013-01-27 18:08:00,
2013-01-27 13:24:00,25.3,17.3,30.44,SW,225,0.0,-999.0,71,-99.99,,,0.00,Acu-Link.com,2013-01-27 18:24:00,
2013-01-27 13:39:00,27.9,18.0,30.44,SSW,202,0.0,-999.0,66,-99.99,,,0.00,Acu-Link.com,2013-01-27 18:39:00,
2013-01-27 13:54:00,27.9,17.3,30.44,WSW,247,0.0,-999.0,64,-99.99,,,0.00,Acu-Link.com,2013-01-27 18:54:00,
2013-01-27 14:09:00,28.4,16.7,30.43,WSW,247,0.0,-999.0,61,-99.99,,,0.00,Acu-Link.com,2013-01-27 19:09:00,
2013-01-27 14:24:00,29.8,17.3,30.43,WNW,292,0.0,-999.0,59,-99.99,,,0.00,Acu-Link.com,2013-01-27 19:24:00,
2013-01-27 14:40:00,30.4,16.6,30.44,SSW,202,0.0,-999.0,56,-99.99,,,0.00,Acu-Link.com,2013-01-27 19:40:00,
2013-01-27 14:55:00,28.4,17.4,30.45,West,270,0.0,-999.0,63,-99.99,,,0.00,Acu-Link.com,2013-01-27 19:55:00,
2013-01-27 15:10:00,27.7,17.5,30.45,WSW,247,0.0,-999.0,65,-99.99,,,0.00,Acu-Link.com,2013-01-27 20:10:00,
2013-01-27 15:25:00,27.5,16.9,30.44,West,270,3.1,-999.0,64,-99.99,,,0.00,Acu-Link.com,2013-01-27 20:25:00,
2013-01-27 15:41:00,26.1,17.6,30.43,ESE,112,2.7,-999.0,70,-99.99,,,0.00,Acu-Link.com,2013-01-27 20:41:00,
2013-01-27 15:56:00,27.0,18.2,30.43,ESE,112,0.0,-999.0,69,-99.99,,,0.00,Acu-Link.com,2013-01-27 20:56:00,
2013-01-27 16:11:00,24.8,17.1,30.44,SW,225,0.0,-999.0,72,-99.99,,,0.00,Acu-Link.com,2013-01-27 21:11:00,
2013-01-27 16:26:00,26.6,16.8,30.43,SSE,157,0.0,-999.0,66,-99.99,,,0.00,Acu-Link.com,2013-01-27 21:26:00,
2013-01-27 16:41:00,26.1,17.6,30.43,SSE,157,0.0,-999.0,70,-99.99,,,0.00,Acu-Link.com,2013-01-27 21:41:00,
2013-01-27 16:57:00,25.5,17.1,30.43,SE,135,0.0,-999.0,70,-99.99,,,0.00,Acu-Link.com,2013-01-27 21:57:00,
2013-01-27 17:12:00,24.1,16.4,30.41,West,270,0.0,-999.0,72,-99.99,,,0.00,Acu-Link.com,2013-01-27 22:12:00,
2013-01-27 17:27:00,21.9,15.8,30.40,South,180,0.0,-999.0,77,-99.99,,,0.00,Acu-Link.com,2013-01-27 22:27:00,
2013-01-27 17:42:00,20.7,14.6,30.40,ENE,67,0.0,-999.0,77,-99.99,,,0.00,Acu-Link.com,2013-01-27 22:42:00,
2013-01-27 17:57:00,20.1,15.8,30.40,SE,135,0.0,-999.0,83,-99.99,,,0.00,Acu-Link.com,2013-01-27 22:57:00,
2013-01-27 18:13:00,18.7,14.4,30.39,SE,135,0.0,-999.0,83,-99.99,,,0.00,Acu-Link.com,2013-01-27 23:13:00,
2013-01-27 18:28:00,18.0,14.2,30.39,SSE,157,0.0,-999.0,85,-99.99,,,0.00,Acu-Link.com,2013-01-27 23:28:00,
2013-01-27 18:43:00,19.9,17.2,30.38,SE,135,0.0,-999.0,89,-99.99,,,0.00,Acu-Link.com,2013-01-27 23:43:00,
2013-01-27 18:58:00,20.3,16.8,30.37,SE,135,0.0,-999.0,86,-99.99,,,0.00,Acu-Link.com,2013-01-27 23:58:00,
2013-01-27 19:13:00,19.4,15.9,30.38,SE,135,0.0,-999.0,86,-99.99,,,0.00,Acu-Link.com,2013-01-28 00:13:00,
2013-01-27 19:29:00,19.9,16.7,30.38,SE,135,0.0,-999.0,87,-99.99,,,0.00,Acu-Link.com,2013-01-28 00:29:00,
2013-01-27 19:44:00,20.5,16.4,30.38,SE,135,0.0,-999.0,84,-99.99,,,0.00,Acu-Link.com,2013-01-28 00:44:00,
2013-01-27 19:59:00,20.5,16.2,30.37,SE,135,0.0,-999.0,83,-99.99,,,0.00,Acu-Link.com,2013-01-28 00:59:00,
2013-01-27 20:14:00,20.1,16.1,30.37,SE,135,0.0,-999.0,84,-99.99,,,0.00,Acu-Link.com,2013-01-28 01:14:00,
2013-01-27 20:30:00,19.4,15.6,30.36,South,180,0.0,-999.0,85,-99.99,,,0.00,Acu-Link.com,2013-01-28 01:30:00,
2013-01-27 20:45:00,17.6,14.9,30.36,SSE,157,0.0,-999.0,89,-99.99,,,0.00,Acu-Link.com,2013-01-28 01:45:00,
2013-01-27 21:00:00,18.0,16.3,30.35,SE,135,0.0,-999.0,93,-99.99,,,0.00,Acu-Link.com,2013-01-28 02:00:00,
2013-01-27 21:15:00,18.0,16.3,30.34,SE,135,0.0,-999.0,93,-99.99,,,0.00,Acu-Link.com,2013-01-28 02:15:00,
2013-01-27 21:30:00,18.3,15.9,30.34,SE,135,0.0,-999.0,90,-99.99,,,0.00,Acu-Link.com,2013-01-28 02:30:00,
2013-01-27 21:46:00,18.9,15.6,30.34,SE,135,3.8,-999.0,87,-99.99,,,0.00,Acu-Link.com,2013-01-28 02:46:00,
2013-01-27 22:01:00,19.4,16.2,30.33,SE,135,3.8,-999.0,87,-99.99,,,0.00,Acu-Link.com,2013-01-28 03:01:00,
2013-01-27 22:16:00,19.4,17.0,30.33,SSE,157,3.8,-999.0,90,-99.99,,,0.00,Acu-Link.com,2013-01-28 03:16:00,
2013-01-27 22:31:00,19.8,16.3,30.33,SSE,157,3.8,-999.0,86,-99.99,,,0.00,Acu-Link.com,2013-01-28 03:31:00,
2013-01-27 22:46:00,20.3,16.8,30.32,South,180,0.0,-999.0,86,-99.99,,,0.00,Acu-Link.com,2013-01-28 03:46:00,
2013-01-27 23:02:00,21.0,16.1,30.32,SE,135,2.7,-999.0,81,-99.99,,,0.00,Acu-Link.com,2013-01-28 04:02:00,
2013-01-27 23:17:00,21.6,16.6,30.32,SE,135,2.7,-999.0,81,-99.99,,,0.00,Acu-Link.com,2013-01-28 04:17:00,
2013-01-27 23:32:00,21.9,16.4,30.32,SSE,157,0.0,-999.0,79,-99.99,,,0.00,Acu-Link.com,2013-01-28 04:32:00,
2013-01-27 23:47:00,22.3,16.8,30.31,SE,135,0.0,-999.0,79,-99.99,,,0.00,Acu-Link.com,2013-01-28 04:47:00,